Time;durP1;ratioP1;P1;durP2;ratioP2;P2;SDS_P1;SDS_P2;PMS_P1;PMS_P2;Temp;Humidity;BMP_temperature;BMP_pressure;BME280_temperature;BME280_humidity;BME280_pressure;Samples;Min_cycle;Max_cycle;Signal;HPM_P1;HPM_P2
2022/10/16 00:01:59;;;;;;;2.45;1.00;;;21.10;54.80;;;;;;5047296;28;20028;-51
2022/10/16 00:04:25;;;;;;;1.73;1.02;;;21.10;54.80;;;;;;5048445;28;20043;-45
2022/10/16 00:06:50;;;;;;;1.92;0.98;;;21.10;54.80;;;;;;5050972;28;20052;-48
2022/10/16 00:09:16;;;;;;;3.05;1.00;;;21.10;54.80;;;;;;5048916;28;20029;-49
2022/10/16 00:11:42;;;;;;;2.22;0.88;;;21.10;54.80;;;;;;5050528;28;20049;-46
2022/10/16 00:14:12;;;;;;;3.28;1.20;;;21.10;54.80;;;;;;5049681;28;20094;-49
2022/10/16 00:16:38;;;;;;;2.88;1.00;;;21.10;54.80;;;;;;5049987;28;20628;-49
2022/10/16 00:19:04;;;;;;;1.75;0.95;;;21.10;54.70;;;;;;5049215;28;20044;-47
2022/10/16 00:21:31;;;;;;;1.33;0.70;;;21.00;54.60;;;;;;5050069;28;20021;-47
2022/10/16 00:24:06;;;;;;;2.28;0.80;;;21.10;54.70;;;;;;5048627;28;20025;-46
2022/10/16 00:26:33;;;;;;;3.20;1.00;;;21.00;54.60;;;;;;5049200;28;20510;-48
2022/10/16 00:29:00;;;;;;;2.65;1.10;;;21.00;54.60;;;;;;5050449;28;20086;-50
2022/10/16 00:31:26;;;;;;;1.20;0.70;;;21.00;54.60;;;;;;5050173;28;20471;-51
2022/10/16 00:33:52;;;;;;;1.38;0.90;;;21.10;54.60;;;;;;5049754;28;20033;-52
2022/10/16 00:36:21;;;;;;;1.73;0.90;;;21.00;54.60;;;;;;5049391;28;20044;-50
2022/10/16 00:38:47;;;;;;;1.30;0.70;;;21.00;54.60;;;;;;5048110;28;20460;-48
2022/10/16 00:41:16;;;;;;;2.45;0.90;;;21.00;54.60;;;;;;5049475;28;20032;-51
2022/10/16 00:43:48;;;;;;;2.30;0.98;;;21.00;54.60;;;;;;5049895;28;20043;-47
2022/10/16 00:46:29;;;;;;;2.38;0.80;;;21.00;54.60;;;;;;5046549;28;20059;-52
2022/10/16 00:49:16;;;;;;;1.73;1.00;;;21.00;54.60;;;;;;5048229;28;20036;-48
2022/10/16 00:51:49;;;;;;;2.15;0.80;;;21.00;54.60;;;;;;5049917;28;20033;-50
2022/10/16 00:54:22;;;;;;;1.60;0.82;;;21.00;54.60;;;;;;5046510;28;20456;-46
2022/10/16 00:56:48;;;;;;;1.40;0.80;;;21.00;54.60;;;;;;5049981;28;20045;-48
2022/10/16 00:59:20;;;;;;;1.73;0.95;;;21.00;54.60;;;;;;5048285;28;20025;-48
2022/10/16 01:01:46;;;;;;;1.20;0.80;;;21.00;54.60;;;;;;5048887;28;20068;-51
2022/10/16 01:04:12;;;;;;;1.42;0.70;;;21.00;54.60;;;;;;5048489;28;20047;-50
2022/10/16 01:06:53;;;;;;;1.63;0.80;;;21.00;54.60;;;;;;5050068;28;20029;-49
2022/10/16 01:09:44;;;;;;;1.42;0.90;;;21.00;54.60;;;;;;5052802;28;20029;-47
2022/10/16 01:12:29;;;;;;;2.00;1.02;;;21.00;54.60;;;;;;5051221;28;20123;-44
2022/10/16 01:15:20;;;;;;;1.98;0.95;;;21.00;54.60;;;;;;5053633;28;20076;-50
2022/10/16 01:17:59;;;;;;;1.33;0.65;;;21.00;54.70;;;;;;5053635;28;20467;-48
2022/10/16 01:20:31;;;;;;;1.67;1.00;;;21.00;54.60;;;;;;5049353;28;20830;-51
2022/10/16 01:23:28;;;;;;;3.08;0.80;;;20.90;54.60;;;;;;5050151;28;20033;-47
2022/10/16 01:25:57;;;;;;;1.67;0.70;;;20.90;54.60;;;;;;5047496;28;20041;-47
2022/10/16 01:28:30;;;;;;;2.05;0.93;;;20.90;54.60;;;;;;5053347;28;20375;-48
2022/10/16 01:30:59;;;;;;;1.17;0.70;;;20.90;54.60;;;;;;5052307;28;20029;-47
2022/10/16 01:33:35;;;;;;;2.38;0.90;;;20.90;54.70;;;;;;5053154;28;20028;-47
2022/10/16 01:36:11;;;;;;;1.40;0.85;;;20.90;54.70;;;;;;5051644;28;20061;-50
2022/10/16 01:38:39;;;;;;;1.92;0.80;;;20.90;54.70;;;;;;5053635;28;20152;-51
2022/10/16 01:41:31;;;;;;;1.52;1.00;;;20.90;54.80;;;;;;5044625;28;20045;-50
2022/10/16 01:44:02;;;;;;;2.20;0.90;;;20.90;54.80;;;;;;5050331;28;20029;-47
2022/10/16 01:46:30;;;;;;;1.50;0.80;;;20.90;54.80;;;;;;5052321;28;20025;-48
2022/10/16 01:48:57;;;;;;;1.75;0.85;;;20.90;54.80;;;;;;5052351;28;20025;-46
2022/10/16 01:51:26;;;;;;;1.63;0.70;;;20.90;54.80;;;;;;5052134;28;20102;-51
2022/10/16 01:53:58;;;;;;;2.15;0.90;;;20.90;54.80;;;;;;5051923;28;20028;-49
2022/10/16 01:56:25;;;;;;;1.85;0.77;;;20.90;54.90;;;;;;5051556;28;20045;-51
2022/10/16 01:59:01;;;;;;;2.33;0.85;;;20.90;54.90;;;;;;5051036;28;20454;-51
2022/10/16 02:01:31;;;;;;;1.13;0.70;;;20.90;54.90;;;;;;5040385;28;20029;-52
2022/10/16 02:03:59;;;;;;;2.13;0.77;;;20.90;54.90;;;;;;5049446;28;20662;-50
2022/10/16 02:06:25;;;;;;;2.63;0.80;;;20.90;54.90;;;;;;5051506;28;20040;-48
2022/10/16 02:08:51;;;;;;;1.77;0.90;;;20.90;54.90;;;;;;5048885;28;20024;-51
2022/10/16 02:11:17;;;;;;;1.30;0.60;;;20.90;54.90;;;;;;5052387;28;20086;-51
2022/10/16 02:13:58;;;;;;;1.25;0.82;;;20.90;54.90;;;;;;5049439;28;20056;-45
2022/10/16 02:16:34;;;;;;;1.35;0.70;;;20.90;54.90;;;;;;5051954;28;20109;-48
2022/10/16 02:19:00;;;;;;;2.33;0.90;;;20.80;54.90;;;;;;5048779;28;20044;-50
2022/10/16 02:21:31;;;;;;;1.38;0.60;;;20.90;55.00;;;;;;5052368;28;20029;-50
2022/10/16 02:24:30;;;;;;;1.02;0.70;;;20.90;55.00;;;;;;5041984;28;20029;-49
2022/10/16 02:27:17;;;;;;;1.15;0.70;;;20.90;55.00;;;;;;5051367;28;20037;-47
2022/10/16 02:29:50;;;;;;;1.25;0.80;;;20.80;54.90;;;;;;5052069;28;20471;-49
2022/10/16 02:32:23;;;;;;;1.30;0.80;;;20.80;55.00;;;;;;5052547;28;20095;-46
2022/10/16 02:34:50;;;;;;;1.27;0.73;;;20.90;55.00;;;;;;5049482;28;20037;-46
2022/10/16 02:37:18;;;;;;;1.75;0.70;;;20.80;55.00;;;;;;5052045;28;20028;-45
2022/10/16 02:39:44;;;;;;;2.05;0.73;;;20.90;55.10;;;;;;5049765;28;20029;-47
2022/10/16 02:42:14;;;;;;;1.63;0.80;;;20.80;55.00;;;;;;5049880;28;20039;-46
2022/10/16 02:44:40;;;;;;;1.65;0.70;;;20.80;55.00;;;;;;5051397;28;20056;-48
2022/10/16 02:47:06;;;;;;;1.10;0.60;;;20.90;55.10;;;;;;5051480;28;20082;-44
2022/10/16 02:49:32;;;;;;;1.85;0.70;;;20.80;55.00;;;;;;5049283;28;20033;-44
2022/10/16 02:51:58;;;;;;;1.15;0.70;;;20.80;55.00;;;;;;5052710;28;20064;-48
2022/10/16 02:54:23;;;;;;;1.13;0.70;;;20.80;55.00;;;;;;5050437;28;20032;-48
2022/10/16 02:56:49;;;;;;;1.42;0.73;;;20.80;55.00;;;;;;5051976;28;20033;-48
2022/10/16 02:59:16;;;;;;;2.58;0.55;;;20.80;55.60;;;;;;5046757;28;20079;-44
2022/10/16 03:01:41;;;;;;;1.15;0.70;;;20.80;55.10;;;;;;5050288;28;20029;-47
2022/10/16 03:04:07;;;;;;;1.02;0.50;;;20.80;55.10;;;;;;5050973;28;20510;-46
2022/10/16 03:06:33;;;;;;;1.63;0.82;;;20.80;55.10;;;;;;5052812;28;20029;-44
2022/10/16 03:08:59;;;;;;;2.97;0.80;;;20.80;55.10;;;;;;5049915;28;20408;-45
2022/10/16 03:11:26;;;;;;;1.45;0.68;;;20.80;55.10;;;;;;5051042;28;20072;-49
2022/10/16 03:13:52;;;;;;;2.10;0.68;;;20.80;55.10;;;;;;5050980;28;20068;-49
2022/10/16 03:16:17;;;;;;;1.23;0.68;;;20.80;55.20;;;;;;5050433;28;20064;-45
2022/10/16 03:18:43;;;;;;;0.93;0.55;;;20.80;55.20;;;;;;5050813;28;20516;-45
2022/10/16 03:21:09;;;;;;;0.95;0.60;;;20.80;55.20;;;;;;5051165;28;20025;-47
2022/10/16 03:23:35;;;;;;;0.98;0.60;;;20.90;55.30;;;;;;5051173;28;20045;-48
2022/10/16 03:26:00;;;;;;;0.70;0.50;;;20.80;55.20;;;;;;5051329;28;20086;-45
2022/10/16 03:28:26;;;;;;;1.23;0.70;;;20.80;55.20;;;;;;5050722;28;20020;-47
2022/10/16 03:30:52;;;;;;;0.95;0.60;;;20.80;55.20;;;;;;5048484;28;20112;-46
2022/10/16 03:33:18;;;;;;;1.35;0.60;;;20.80;55.20;;;;;;5050399;28;20035;-47
2022/10/16 03:35:52;;;;;;;0.50;0.40;;;20.80;55.10;;;;;;5049559;28;20044;-46
2022/10/16 03:38:18;;;;;;;1.42;0.80;;;20.80;55.10;;;;;;5048604;28;20044;-50
2022/10/16 03:40:43;;;;;;;1.10;0.70;;;20.80;55.10;;;;;;5050202;28;20020;-52
2022/10/16 03:43:09;;;;;;;1.63;0.50;;;20.80;55.10;;;;;;5050576;28;20120;-51
2022/10/16 03:45:35;;;;;;;0.88;0.70;;;20.80;55.10;;;;;;5050298;28;20032;-50
2022/10/16 03:48:02;;;;;;;1.08;0.75;;;20.80;55.00;;;;;;5049419;28;20087;-49
2022/10/16 03:50:28;;;;;;;0.90;0.55;;;20.80;55.00;;;;;;5051097;28;20029;-51
2022/10/16 03:52:53;;;;;;;0.98;0.63;;;20.80;55.00;;;;;;5051154;28;20087;-49
2022/10/16 03:55:19;;;;;;;0.75;0.50;;;20.80;55.00;;;;;;5049916;28;20032;-52
2022/10/16 03:57:45;;;;;;;1.38;0.70;;;20.80;55.00;;;;;;5050745;28;20040;-46
2022/10/16 04:00:12;;;;;;;1.15;0.63;;;20.80;55.00;;;;;;5051057;28;20033;-49
2022/10/16 04:02:38;;;;;;;1.05;0.70;;;20.80;55.00;;;;;;5047550;28;20029;-46
2022/10/16 04:05:04;;;;;;;1.27;0.70;;;20.80;55.00;;;;;;5049869;28;20029;-46
2022/10/16 04:07:30;;;;;;;1.27;0.73;;;20.80;55.00;;;;;;5050002;28;20028;-53
2022/10/16 04:09:58;;;;;;;0.80;0.63;;;20.80;55.00;;;;;;5049913;28;20043;-52
2022/10/16 04:12:25;;;;;;;1.83;0.73;;;20.80;55.00;;;;;;5050463;28;20049;-51
2022/10/16 04:14:51;;;;;;;2.38;0.70;;;20.80;55.00;;;;;;5050170;28;20360;-49
2022/10/16 04:17:17;;;;;;;1.13;0.60;;;20.80;55.00;;;;;;5049566;28;20021;-50
2022/10/16 04:19:43;;;;;;;0.90;0.60;;;20.80;54.90;;;;;;5049364;28;20174;-49
2022/10/16 04:22:08;;;;;;;0.80;0.60;;;20.80;54.90;;;;;;5049364;28;20028;-51
2022/10/16 04:24:34;;;;;;;1.65;0.90;;;20.80;54.90;;;;;;5050214;28;20092;-46
2022/10/16 04:27:00;;;;;;;0.77;0.50;;;20.80;54.90;;;;;;5048241;28;20029;-50
2022/10/16 04:29:26;;;;;;;1.00;0.50;;;20.80;54.90;;;;;;5050241;28;20096;-46
2022/10/16 04:31:52;;;;;;;0.55;0.50;;;20.80;55.00;;;;;;5050528;28;20094;-49
2022/10/16 04:34:18;;;;;;;0.90;0.63;;;20.80;54.90;;;;;;5049381;28;20098;-51
2022/10/16 04:36:44;;;;;;;0.70;0.50;;;20.80;54.90;;;;;;5047784;28;20037;-45
2022/10/16 04:39:09;;;;;;;1.02;0.60;;;20.80;54.90;;;;;;5049787;28;20463;-46
2022/10/16 04:41:35;;;;;;;0.73;0.50;;;20.80;54.90;;;;;;5048912;28;20104;-50
2022/10/16 04:44:01;;;;;;;0.70;0.50;;;20.80;54.90;;;;;;5050038;28;20025;-48
2022/10/16 04:46:27;;;;;;;0.75;0.52;;;20.80;54.90;;;;;;5047761;28;20021;-50
2022/10/16 04:48:53;;;;;;;0.95;0.55;;;20.80;54.90;;;;;;5049952;28;20087;-43
2022/10/16 04:51:19;;;;;;;0.77;0.50;;;20.80;54.90;;;;;;5048933;28;20025;-50
2022/10/16 04:53:45;;;;;;;0.80;0.60;;;20.80;54.90;;;;;;5049722;28;20029;-48
2022/10/16 04:56:11;;;;;;;0.80;0.57;;;20.80;54.90;;;;;;5049196;28;20041;-48
2022/10/16 04:58:36;;;;;;;0.73;0.47;;;20.80;54.90;;;;;;5049029;28;20040;-44
2022/10/16 05:01:02;;;;;;;0.95;0.70;;;20.70;54.80;;;;;;5048367;28;20043;-50
2022/10/16 05:03:28;;;;;;;1.50;0.70;;;20.70;54.90;;;;;;5049084;28;20032;-48
2022/10/16 05:05:54;;;;;;;1.50;0.73;;;20.70;54.90;;;;;;5048262;28;20021;-46
2022/10/16 05:08:20;;;;;;;0.93;0.52;;;20.80;54.90;;;;;;5048788;28;20033;-47
2022/10/16 05:10:46;;;;;;;0.85;0.50;;;20.80;54.90;;;;;;5049779;28;20115;-45
2022/10/16 05:13:12;;;;;;;1.02;0.60;;;20.80;54.90;;;;;;5046527;28;20347;-46
2022/10/16 05:15:38;;;;;;;1.05;0.63;;;20.70;54.80;;;;;;5049694;28;20044;-50
2022/10/16 05:18:03;;;;;;;1.05;0.70;;;20.80;54.90;;;;;;5047819;28;20425;-46
2022/10/16 05:20:29;;;;;;;2.15;0.50;;;20.70;54.80;;;;;;5049797;28;20503;-44
2022/10/16 05:22:55;;;;;;;3.40;0.73;;;20.70;54.80;;;;;;5049486;28;20483;-43
2022/10/16 05:25:21;;;;;;;2.08;0.60;;;20.80;54.90;;;;;;5047198;28;20025;-47
2022/10/16 05:27:50;;;;;;;0.60;0.40;;;20.70;54.80;;;;;;5049428;28;20119;-50
2022/10/16 05:30:17;;;;;;;0.90;0.50;;;20.70;54.80;;;;;;5049813;28;20041;-48
2022/10/16 05:32:47;;;;;;;0.82;0.50;;;20.70;54.80;;;;;;5049944;28;20029;-47
2022/10/16 05:35:13;;;;;;;0.40;0.32;;;20.70;54.80;;;;;;5049470;28;20044;-48
2022/10/16 05:37:39;;;;;;;0.80;0.60;;;20.70;54.80;;;;;;5049554;28;20326;-48
2022/10/16 05:40:05;;;;;;;1.00;0.50;;;20.70;54.80;;;;;;5049331;28;20033;-45
2022/10/16 05:42:31;;;;;;;0.98;0.50;;;20.70;54.80;;;;;;5049301;28;20041;-47
2022/10/16 05:44:57;;;;;;;1.33;0.50;;;20.70;54.80;;;;;;5049001;28;20035;-44
2022/10/16 05:47:22;;;;;;;0.57;0.40;;;20.70;54.80;;;;;;5048499;28;20025;-49
2022/10/16 05:49:48;;;;;;;1.13;0.63;;;20.70;54.80;;;;;;5048434;28;20124;-45
2022/10/16 05:52:14;;;;;;;0.70;0.52;;;20.70;55.10;;;;;;5052190;28;20025;-50
2022/10/16 05:54:40;;;;;;;1.20;0.57;;;20.70;54.80;;;;;;5052452;28;20098;-46
2022/10/16 05:57:06;;;;;;;0.73;0.50;;;20.70;54.80;;;;;;5052760;28;20037;-45
2022/10/16 05:59:32;;;;;;;1.02;0.50;;;20.70;54.70;;;;;;5051744;28;20039;-46
2022/10/16 06:01:58;;;;;;;0.70;0.40;;;20.70;54.70;;;;;;5050104;28;20033;-45
2022/10/16 06:04:23;;;;;;;0.73;0.47;;;20.70;54.70;;;;;;5052998;28;20083;-47
2022/10/16 06:06:49;;;;;;;1.45;0.50;;;20.70;54.70;;;;;;5052378;28;20132;-48
2022/10/16 06:09:15;;;;;;;1.48;0.43;;;20.70;54.80;;;;;;5048794;28;20035;-48
2022/10/16 06:11:41;;;;;;;0.60;0.40;;;20.70;54.80;;;;;;5052245;28;20045;-46
2022/10/16 06:14:08;;;;;;;1.42;0.80;;;20.70;54.80;;;;;;5051676;28;20032;-49
2022/10/16 06:16:38;;;;;;;1.38;0.95;;;20.70;54.80;;;;;;5052284;28;20071;-45
2022/10/16 06:19:06;;;;;;;2.05;1.20;;;20.70;54.80;;;;;;5048947;28;20321;-45
2022/10/16 06:21:32;;;;;;;1.02;0.93;;;20.70;54.80;;;;;;5052836;28;20025;-46
2022/10/16 06:23:58;;;;;;;2.15;0.95;;;20.70;54.80;;;;;;5048969;28;20433;-46
2022/10/16 06:26:28;;;;;;;1.30;0.98;;;20.70;54.80;;;;;;5051970;28;20021;-48
2022/10/16 06:28:55;;;;;;;1.15;0.88;;;20.70;54.90;;;;;;5049628;28;20021;-47
2022/10/16 06:31:22;;;;;;;1.17;0.70;;;20.70;54.90;;;;;;5051934;28;20038;-45
2022/10/16 06:33:51;;;;;;;1.75;0.65;;;20.70;55.00;;;;;;5054258;28;20105;-47
2022/10/16 06:36:17;;;;;;;1.55;0.85;;;20.70;55.00;;;;;;5046521;28;20060;-46
2022/10/16 06:38:44;;;;;;;1.23;0.88;;;20.70;55.00;;;;;;5051875;28;20091;-45
2022/10/16 06:41:13;;;;;;;1.70;0.80;;;20.70;55.00;;;;;;5052609;28;20020;-45
2022/10/16 06:43:38;;;;;;;1.45;0.75;;;20.70;55.00;;;;;;5053015;28;20029;-47
2022/10/16 06:46:07;;;;;;;1.80;0.50;;;20.70;55.00;;;;;;5052464;28;20025;-49
2022/10/16 06:48:34;;;;;;;0.95;0.60;;;20.70;55.00;;;;;;5049939;28;20025;-47
2022/10/16 06:51:05;;;;;;;0.85;0.57;;;20.70;55.00;;;;;;5051475;28;20037;-51
2022/10/16 06:53:34;;;;;;;0.47;0.47;;;20.60;55.00;;;;;;5051943;28;20032;-51
2022/10/16 06:56:13;;;;;;;0.65;0.50;;;20.60;54.90;;;;;;5051754;28;20033;-51
2022/10/16 06:58:39;;;;;;;1.42;0.60;;;20.70;55.00;;;;;;5049677;28;20025;-49
2022/10/16 07:01:05;;;;;;;1.95;1.10;;;20.70;55.00;;;;;;5047237;28;20032;-52
2022/10/16 07:03:31;;;;;;;0.80;0.50;;;20.70;55.00;;;;;;5049944;28;20025;-51
2022/10/16 07:06:03;;;;;;;1.48;0.73;;;20.70;55.00;;;;;;5051501;28;20395;-47
2022/10/16 07:08:32;;;;;;;1.33;0.55;;;20.60;55.00;;;;;;5050103;28;20029;-46
2022/10/16 07:11:03;;;;;;;0.98;0.70;;;20.60;55.10;;;;;;5044594;28;20053;-48
2022/10/16 07:13:28;;;;;;;1.55;0.50;;;20.70;55.10;;;;;;5054256;28;20036;-48
2022/10/16 07:15:54;;;;;;;1.17;0.65;;;20.60;55.10;;;;;;5052056;28;20036;-52
2022/10/16 07:18:20;;;;;;;0.55;0.50;;;20.60;55.20;;;;;;5047424;28;20064;-47
2022/10/16 07:20:46;;;;;;;1.08;0.60;;;20.60;55.30;;;;;;5050447;28;20045;-48
2022/10/16 07:23:12;;;;;;;0.93;0.60;;;20.70;55.40;;;;;;5049996;28;20035;-47
2022/10/16 07:25:38;;;;;;;0.80;0.50;;;20.70;55.50;;;;;;5046477;28;20510;-47
2022/10/16 07:28:04;;;;;;;1.40;0.60;;;20.70;55.50;;;;;;5043941;28;20025;-45
2022/10/16 07:30:29;;;;;;;0.50;0.40;;;20.70;55.40;;;;;;5055378;28;20109;-49
2022/10/16 07:32:55;;;;;;;1.23;0.60;;;20.70;55.40;;;;;;5055174;28;20056;-47
2022/10/16 07:35:21;;;;;;;1.30;0.50;;;20.60;55.40;;;;;;5045113;28;20104;-46
2022/10/16 07:37:47;;;;;;;2.13;0.60;;;20.70;55.50;;;;;;5061890;28;20033;-47
2022/10/16 07:40:13;;;;;;;1.30;0.63;;;20.70;55.40;;;;;;5055335;28;20044;-49
2022/10/16 07:42:39;;;;;;;0.75;0.57;;;20.70;55.50;;;;;;5038416;28;20134;-48
2022/10/16 07:45:05;;;;;;;2.92;0.68;;;20.70;55.40;;;;;;5054596;28;20063;-50
2022/10/16 07:47:31;;;;;;;0.73;0.60;;;20.70;55.40;;;;;;5055084;28;20025;-49
2022/10/16 07:49:57;;;;;;;1.33;0.68;;;20.70;55.40;;;;;;5055740;28;20044;-54
2022/10/16 07:52:22;;;;;;;1.52;0.70;;;20.70;55.40;;;;;;5055230;28;20028;-53
2022/10/16 07:54:48;;;;;;;1.38;0.70;;;20.70;55.50;;;;;;5054509;28;20028;-48
2022/10/16 07:57:19;;;;;;;0.88;0.50;;;20.70;55.40;;;;;;5048762;28;20041;-49
2022/10/16 07:59:46;;;;;;;2.60;0.75;;;20.70;55.40;;;;;;5036525;28;20334;-53
2022/10/16 08:02:12;;;;;;;1.40;0.60;;;20.70;55.50;;;;;;5046383;28;20107;-52
2022/10/16 08:04:38;;;;;;;0.77;0.40;;;20.70;55.40;;;;;;5055456;28;20036;-52
2022/10/16 08:07:04;;;;;;;0.68;0.40;;;20.70;55.40;;;;;;5054847;28;20029;-49
2022/10/16 08:09:29;;;;;;;1.20;0.60;;;20.70;55.40;;;;;;5053995;28;20033;-53
2022/10/16 08:11:55;;;;;;;1.20;0.70;;;20.70;55.50;;;;;;5053268;28;20482;-50
2022/10/16 08:14:21;;;;;;;0.82;0.50;;;20.70;55.50;;;;;;5046992;28;20048;-52
2022/10/16 08:16:47;;;;;;;1.85;0.88;;;20.80;55.50;;;;;;5050013;28;20080;-53
2022/10/16 08:19:12;;;;;;;1.08;0.60;;;20.80;55.50;;;;;;5053126;28;20115;-48
2022/10/16 08:21:38;;;;;;;1.20;0.70;;;20.70;55.50;;;;;;5053771;28;20426;-54
2022/10/16 08:24:04;;;;;;;1.85;0.70;;;20.80;55.50;;;;;;5054932;28;20021;-49
2022/10/16 08:26:30;;;;;;;2.58;0.60;;;20.80;55.50;;;;;;5052417;28;20025;-53
2022/10/16 08:28:56;;;;;;;1.67;0.70;;;20.80;55.50;;;;;;5046785;28;20029;-52
2022/10/16 08:31:22;;;;;;;1.15;0.60;;;20.80;55.50;;;;;;5054810;28;20101;-48
2022/10/16 08:33:49;;;;;;;0.95;0.50;;;20.80;55.60;;;;;;5052803;28;20064;-61
2022/10/16 08:36:16;;;;;;;2.65;0.50;;;20.80;55.70;;;;;;5055152;28;20353;-52
2022/10/16 08:38:41;;;;;;;1.05;0.60;;;20.80;55.50;;;;;;5053552;28;20025;-51
2022/10/16 08:41:26;;;;;;;1.73;0.60;;;20.80;55.50;;;;;;5053565;28;20033;-56
2022/10/16 08:44:00;;;;;;;2.92;0.88;;;20.80;55.60;;;;;;5050107;28;20025;-49
2022/10/16 08:46:51;;;;;;;12.80;6.20;;;20.80;55.70;;;;;;5048870;28;20063;-51
2022/10/16 08:49:17;;;;;;;19.10;9.45;;;20.80;56.60;;;;;;5035045;28;20428;-46
2022/10/16 08:51:45;;;;;;;16.85;9.52;;;20.80;57.60;;;;;;5045087;28;20452;-47
2022/10/16 08:54:33;;;;;;;18.58;9.23;;;20.90;58.70;;;;;;5054798;28;20025;-50
2022/10/16 08:57:11;;;;;;;13.18;6.78;;;20.90;59.20;;;;;;5053953;28;20365;-49
2022/10/16 08:59:36;;;;;;;14.95;5.78;;;20.90;59.20;;;;;;5053846;28;20029;-49
2022/10/16 09:02:26;;;;;;;10.10;4.55;;;21.00;59.00;;;;;;5055160;28;20032;-55
2022/10/16 09:04:59;;;;;;;5.97;3.20;;;21.00;58.60;;;;;;5034040;28;20103;-50
2022/10/16 09:07:56;;;;;;;7.13;2.80;;;21.00;58.40;;;;;;5036972;28;20383;-52
2022/10/16 09:10:43;;;;;;;5.07;2.28;;;21.00;58.00;;;;;;5052508;28;20041;-52
2022/10/16 09:13:09;;;;;;;4.25;1.92;;;21.00;57.70;;;;;;5054601;28;20029;-53
2022/10/16 09:15:45;;;;;;;3.53;1.73;;;21.00;57.50;;;;;;5052289;28;20474;-53
2022/10/16 09:18:25;;;;;;;4.00;1.80;;;21.10;57.40;;;;;;5052822;28;20029;-52
2022/10/16 09:21:05;;;;;;;4.90;1.85;;;21.10;57.20;;;;;;5054176;28;20371;-49
2022/10/16 09:23:35;;;;;;;5.05;1.92;;;21.10;57.10;;;;;;5054597;28;20029;-54
2022/10/16 09:26:02;;;;;;;4.05;2.05;;;21.10;57.00;;;;;;5047855;28;20111;-53
2022/10/16 09:28:28;;;;;;;11.07;4.20;;;21.20;57.10;;;;;;5056048;28;20057;-52
2022/10/16 09:30:54;;;;;;;14.23;5.97;;;21.20;58.00;;;;;;5058280;28;20057;-50
2022/10/16 09:33:24;;;;;;;18.17;8.02;;;21.20;59.50;;;;;;5058469;28;20068;-53
2022/10/16 09:35:53;;;;;;;15.82;7.60;;;21.30;60.90;;;;;;5058043;28;20037;-58
2022/10/16 09:38:24;;;;;;;13.32;6.15;;;21.30;61.70;;;;;;5057048;28;20076;-58
2022/10/16 09:40:50;;;;;;;8.07;3.97;;;21.30;61.20;;;;;;5057780;28;20104;-58
2022/10/16 09:43:41;;;;;;;9.32;3.40;;;21.30;60.50;;;;;;5051316;28;20360;-55
2022/10/16 09:46:28;;;;;;;26.13;8.13;;;21.20;59.60;;;;;;5057586;28;20456;-53
2022/10/16 09:49:16;;;;;;;23.52;10.10;;;21.20;59.90;;;;;;5057853;28;20427;-49
2022/10/16 09:51:41;;;;;;;27.05;10.73;;;21.30;61.30;;;;;;5057883;28;20399;-54
2022/10/16 09:54:08;;;;;;;24.13;11.00;;;21.30;62.60;;;;;;5052273;28;20040;-52
2022/10/16 09:56:36;;;;;;;25.08;11.02;;;21.30;63.80;;;;;;5037933;28;20361;-51
2022/10/16 09:59:30;;;;;;;25.65;11.30;;;21.40;64.80;;;;;;5040999;28;20037;-57
2022/10/16 10:02:03;;;;;;;25.13;11.20;;;21.40;65.70;;;;;;5051120;28;20048;-53
2022/10/16 10:04:41;;;;;;;22.45;9.68;;;21.50;66.10;;;;;;5049996;28;20036;-50
2022/10/16 10:07:18;;;;;;;20.17;8.38;;;21.50;66.10;;;;;;5055210;28;20067;-52
2022/10/16 10:09:45;;;;;;;12.20;5.30;;;21.50;65.10;;;;;;5050493;28;20047;-52
2022/10/16 10:12:28;;;;;;;11.88;4.55;;;21.50;63.70;;;;;;5057282;28;20045;-52
2022/10/16 10:15:19;;;;;;;7.20;3.63;;;21.60;62.20;;;;;;5056880;28;20036;-50
2022/10/16 10:17:51;;;;;;;6.10;3.05;;;21.60;61.10;;;;;;5052428;28;20028;-51
2022/10/16 10:20:22;;;;;;;7.65;3.28;;;21.60;60.50;;;;;;5047799;28;20085;-52
2022/10/16 10:22:49;;;;;;;7.82;2.85;;;21.60;59.90;;;;;;5052572;28;20020;-52
2022/10/16 10:25:32;;;;;;;7.10;2.58;;;21.60;59.50;;;;;;5049999;28;20051;-53
2022/10/16 10:28:30;;;;;;;6.33;2.33;;;21.60;59.10;;;;;;5051777;28;20127;-51
2022/10/16 10:31:03;;;;;;;6.32;2.25;;;21.70;58.80;;;;;;5029693;28;20072;-51
2022/10/16 10:33:37;;;;;;;5.10;2.17;;;21.60;58.60;;;;;;5047968;28;20044;-52
2022/10/16 10:36:03;;;;;;;5.15;2.17;;;21.70;58.40;;;;;;5048153;28;20087;-52
2022/10/16 10:38:56;;;;;;;4.68;2.08;;;21.70;58.30;;;;;;5048661;28;20100;-49
2022/10/16 10:41:22;;;;;;;5.40;2.30;;;21.70;58.10;;;;;;5050502;28;20040;-51
2022/10/16 10:44:04;;;;;;;5.50;2.30;;;21.70;57.90;;;;;;5047073;28;20017;-53
2022/10/16 10:46:36;;;;;;;6.68;2.38;;;21.80;57.80;;;;;;5050991;28;20493;-49
2022/10/16 10:49:36;;;;;;;4.13;2.10;;;21.80;57.70;;;;;;5047772;28;20033;-50
2022/10/16 10:52:17;;;;;;;5.00;1.67;;;21.80;57.60;;;;;;5047802;28;20033;-51
2022/10/16 10:55:33;;;;;;;4.38;1.70;;;21.80;57.50;;;;;;5053708;28;20029;-49
2022/10/16 10:58:29;;;;;;;6.28;1.70;;;21.80;57.20;;;;;;4966239;28;20043;-50
2022/10/16 11:01:06;;;;;;;5.18;1.42;;;21.90;57.10;;;;;;5048509;28;20024;-52
2022/10/16 11:03:55;;;;;;;5.15;1.90;;;21.90;57.00;;;;;;5049950;28;20020;-50
2022/10/16 11:06:32;;;;;;;4.68;1.70;;;21.90;56.80;;;;;;5050638;28;20040;-49
2022/10/16 11:09:01;;;;;;;5.43;1.73;;;21.90;56.60;;;;;;5049349;28;20091;-50
2022/10/16 11:11:38;;;;;;;5.30;1.90;;;21.90;56.50;;;;;;5040387;28;20429;-47
2022/10/16 11:14:29;;;;;;;3.53;1.50;;;22.00;56.40;;;;;;5049288;28;20095;-48
2022/10/16 11:17:01;;;;;;;4.75;1.67;;;22.00;56.20;;;;;;5045671;28;20368;-51
2022/10/16 11:19:46;;;;;;;6.53;1.38;;;22.00;56.10;;;;;;5047505;28;20515;-52
2022/10/16 11:22:19;;;;;;;3.83;1.48;;;22.00;55.90;;;;;;5050503;28;20491;-47
2022/10/16 11:24:54;;;;;;;5.50;1.80;;;22.00;55.70;;;;;;5049947;28;20033;-50
2022/10/16 11:27:35;;;;;;;3.45;1.20;;;22.00;55.50;;;;;;5046189;28;20036;-50
2022/10/16 11:30:11;;;;;;;3.90;1.45;;;22.10;55.30;;;;;;5050349;28;20032;-50
2022/10/16 11:32:56;;;;;;;4.65;1.25;;;22.10;55.10;;;;;;5049434;28;20090;-48
2022/10/16 11:35:43;;;;;;;3.60;1.10;;;22.10;54.90;;;;;;5051542;28;20385;-49
2022/10/16 11:38:38;;;;;;;2.35;1.25;;;22.10;54.50;;;;;;5050385;28;20072;-47
2022/10/16 11:41:22;;;;;;;5.35;1.48;;;22.10;54.00;;;;;;5050667;28;20036;-48
2022/10/16 11:44:03;;;;;;;4.03;1.40;;;22.10;54.00;;;;;;5051234;28;20039;-47
2022/10/16 11:46:32;;;;;;;4.90;1.42;;;22.10;54.00;;;;;;5048841;28;20037;-48
2022/10/16 11:49:08;;;;;;;4.05;1.38;;;22.20;53.80;;;;;;5044130;28;20364;-49
2022/10/16 11:51:42;;;;;;;4.38;1.23;;;22.20;53.60;;;;;;5049956;28;20021;-48
2022/10/16 11:54:16;;;;;;;3.90;0.90;;;22.20;53.30;;;;;;5045120;28;20083;-52
2022/10/16 11:56:44;;;;;;;2.47;0.90;;;22.20;53.60;;;;;;5060841;28;20115;-47
2022/10/16 11:59:43;;;;;;;4.88;1.05;;;22.20;52.90;;;;;;5045870;28;20040;-51
2022/10/16 12:02:27;;;;;;;2.45;0.90;;;22.20;52.70;;;;;;5043170;28;20337;-51
2022/10/16 12:05:15;;;;;;;5.55;1.50;;;22.20;52.50;;;;;;5044521;28;20037;-48
2022/10/16 12:07:51;;;;;;;5.43;1.10;;;22.20;52.30;;;;;;5047120;28;20045;-50
2022/10/16 12:10:26;;;;;;;7.38;1.42;;;22.20;52.20;;;;;;5040789;28;20041;-52
2022/10/16 12:12:59;;;;;;;2.28;1.00;;;22.20;52.10;;;;;;5053747;28;20045;-54
2022/10/16 12:15:32;;;;;;;3.80;1.10;;;22.20;51.90;;;;;;5053343;28;20029;-48
2022/10/16 12:17:58;;;;;;;2.35;0.82;;;22.20;51.80;;;;;;5050052;28;20437;-54
2022/10/16 12:20:32;;;;;;;2.80;0.88;;;22.20;51.80;;;;;;5048394;28;20036;-51
2022/10/16 12:23:06;;;;;;;4.43;1.37;;;22.20;51.70;;;;;;5047506;28;20414;-53
2022/10/16 12:25:37;;;;;;;4.22;1.35;;;22.20;51.60;;;;;;5048792;28;20025;-57
2022/10/16 12:28:16;;;;;;;5.18;1.05;;;22.20;51.60;;;;;;5049225;28;20472;-56
2022/10/16 12:30:56;;;;;;;4.03;1.08;;;22.20;51.50;;;;;;5049941;28;20174;-52
2022/10/16 12:33:30;;;;;;;1.73;0.82;;;22.10;51.40;;;;;;5049829;28;20044;-54
2022/10/16 12:36:02;;;;;;;4.15;1.27;;;22.20;51.50;;;;;;5048735;28;20070;-51
2022/10/16 12:38:50;;;;;;;3.42;0.85;;;22.20;51.50;;;;;;5050028;28;20025;-50
2022/10/16 12:41:39;;;;;;;2.88;0.85;;;22.10;51.30;;;;;;5046210;28;20025;-57
2022/10/16 12:44:26;;;;;;;3.60;1.30;;;22.10;51.30;;;;;;5047791;28;20151;-53
2022/10/16 12:46:52;;;;;;;4.68;1.20;;;22.20;51.30;;;;;;5048610;28;20021;-53
2022/10/16 12:49:33;;;;;;;5.00;1.30;;;22.20;51.20;;;;;;5042757;28;20039;-53
2022/10/16 12:52:03;;;;;;;3.28;1.27;;;22.20;51.20;;;;;;5044780;28;20040;-52
2022/10/16 12:54:37;;;;;;;3.35;1.13;;;22.20;51.10;;;;;;5046179;28;20111;-55
2022/10/16 12:57:22;;;;;;;;;;;22.10;51.00;;;;;;5050475;28;20040;-52
2022/10/16 13:00:20;;;;;;;2.38;1.00;;;22.10;51.00;;;;;;5048653;28;20363;-53
2022/10/16 13:03:11;;;;;;;2.92;1.00;;;22.10;50.90;;;;;;5033517;28;20094;-53
2022/10/16 13:06:01;;;;;;;4.72;1.02;;;22.10;50.90;;;;;;5048741;28;20097;-55
2022/10/16 13:08:54;;;;;;;4.03;1.08;;;22.10;50.70;;;;;;5050281;28;20028;-54